Time;durP1;ratioP1;P1;durP2;ratioP2;P2;SDS_P1;SDS_P2;PMS_P1;PMS_P2;Temp;Humidity;BMP_temperature;BMP_pressure;BME280_temperature;BME280_humidity;BME280_pressure;Samples;Min_cycle;Max_cycle;Signal;HPM_P1;HPM_P2
2023/10/27 00:01:19;;;;;;;;;;;;;;;13.69;100.00;94387.34;5138355;27;1988;-65
2023/10/27 00:03:45;;;;;;;;;;;;;;;13.84;100.00;94376.47;5138383;27;1052;-64
2023/10/27 00:06:11;;;;;;;;;;;;;;;13.94;100.00;94359.97;5138257;27;1088;-64
2023/10/27 00:08:37;;;;;;;;;;;;;;;13.73;100.00;94359.06;5138207;27;1081;-65
2023/10/27 00:11:05;;;;;;;;;;;;;;;13.75;100.00;94348.94;5138382;27;1098;-65
2023/10/27 00:13:31;;;;;;;;;;;;;;;13.55;100.00;94343.50;5138209;27;1207;-66
2023/10/27 00:15:57;;;;;;;;;;;;;;;13.48;100.00;94335.38;5138243;27;1007;-66
2023/10/27 00:18:23;;;;;;;;;;;;;;;13.53;100.00;94324.06;5137975;27;1190;-66
2023/10/27 00:20:49;;;;;;;;;;;;;;;13.65;100.00;94322.44;5138283;27;1991;-66
2023/10/27 00:23:15;;;;;;;;;;;;;;;13.80;100.00;94325.00;5138269;27;1006;-66
2023/10/27 00:25:41;;;;;;;;;;;;;;;13.95;100.00;94334.78;5137967;27;991;-65
2023/10/27 00:28:07;;;;;;;;;;;;;;;13.95;100.00;94337.47;5138026;27;1025;-65
2023/10/27 00:30:33;;;;;;;;;;;;;;;13.91;100.00;94325.47;5137896;27;1052;-65
2023/10/27 00:32:59;;;;;;;;;;;;;;;13.74;100.00;94314.25;5144056;27;1181;-65
2023/10/27 00:35:25;;;;;;;;;;;;;;;13.71;100.00;94309.25;5158700;27;1054;-65
2023/10/27 00:37:51;;;;;;;;;;;;;;;13.89;100.00;94322.97;5140103;27;1032;-65
2023/10/27 00:40:17;;;;;;;;;;;;;;;13.85;100.00;94327.91;5158456;27;1933;-65
2023/10/27 00:42:43;;;;;;;;;;;;;;;13.80;100.00;94332.22;5158504;27;995;-65
2023/10/27 00:45:09;;;;;;;;;;;;;;;13.81;100.00;94350.84;5158406;27;1023;-65
2023/10/27 00:47:35;;;;;;;;;;;;;;;13.77;100.00;94343.38;5158316;27;1032;-65
2023/10/27 00:50:01;;;;;;;;;;;;;;;13.77;100.00;94363.03;5158203;27;1119;-65
2023/10/27 00:52:29;;;;;;;;;;;;;;;13.74;100.00;94358.03;5158091;27;1064;-66
2023/10/27 00:54:55;;;;;;;;;;;;;;;13.47;100.00;94363.28;5158288;27;983;-66
2023/10/27 00:57:22;;;;;;;;;;;;;;;13.39;100.00;94358.09;5158150;27;1015;-66
2023/10/27 00:59:50;;;;;;;;;;;;;;;13.55;100.00;94366.84;5139722;27;1906;-66
2023/10/27 01:02:18;;;;;;;;;;;;;;;13.62;100.00;94360.47;5157815;27;1040;-65
2023/10/27 01:04:45;;;;;;;;;;;;;;;13.61;100.00;94361.50;5158145;27;953;-65
2023/10/27 01:07:11;;;;;;;;;;;;;;;13.72;100.00;94345.84;5157865;27;1198;-65
2023/10/27 01:09:37;;;;;;;;;;;;;;;13.52;100.00;94343.88;5158045;27;1044;-65
2023/10/27 01:12:03;;;;;;;;;;;;;;;13.46;100.00;94348.19;5157829;27;1032;-65
2023/10/27 01:14:30;;;;;;;;;;;;;;;13.49;100.00;94355.03;5157788;27;1031;-65
2023/10/27 01:16:57;;;;;;;;;;;;;;;13.36;100.00;94350.41;5157741;27;1094;-65
2023/10/27 01:19:23;;;;;;;;;;;;;;;13.51;100.00;94352.97;5139450;27;1909;-65
2023/10/27 01:21:49;;;;;;;;;;;;;;;13.54;100.00;94346.38;5157691;27;1115;-65
2023/10/27 01:24:15;;;;;;;;;;;;;;;13.44;100.00;94346.75;5157705;27;1007;-65
2023/10/27 01:26:41;;;;;;;;;;;;;;;13.40;100.00;94334.75;5157656;27;957;-65
2023/10/27 01:29:06;;;;;;;;;;;;;;;13.53;100.00;94350.09;5157627;27;1034;-65
2023/10/27 01:31:32;;;;;;;;;;;;;;;13.47;100.00;94354.41;5157329;27;964;-65
2023/10/27 01:33:58;;;;;;;;;;;;;;;13.56;100.00;94355.06;5142528;27;1156;-65
2023/10/27 01:36:24;;;;;;;;;;;;;;;13.50;100.00;94347.81;5136625;27;1107;-66
2023/10/27 01:38:50;;;;;;;;;;;;;;;13.29;100.00;94360.25;5136768;27;969;-64
2023/10/27 01:41:17;;;;;;;;;;;;;;;13.12;100.00;94358.91;5136529;27;1898;-64
2023/10/27 01:43:43;;;;;;;;;;;;;;;13.10;100.00;94359.09;5136646;27;1019;-65
2023/10/27 01:46:09;;;;;;;;;;;;;;;13.12;100.00;94356.22;5136402;27;1030;-65
2023/10/27 01:48:36;;;;;;;;;;;;;;;13.24;100.00;94354.63;5136627;27;995;-65
2023/10/27 01:51:03;;;;;;;;;;;;;;;13.27;100.00;94352.38;5136364;27;1028;-65
2023/10/27 01:53:29;;;;;;;;;;;;;;;13.11;100.00;94355.41;5136258;27;1106;-65
2023/10/27 01:55:55;;;;;;;;;;;;;;;13.15;100.00;94362.03;5136403;27;1055;-65
2023/10/27 01:58:21;;;;;;;;;;;;;;;13.39;100.00;94346.50;5136203;27;1011;-66
2023/10/27 02:00:47;;;;;;;;;;;;;;;13.47;100.00;94349.84;5136083;27;1914;-66
2023/10/27 02:03:13;;;;;;;;;;;;;;;13.40;100.00;94356.22;5136299;27;1064;-64
2023/10/27 02:05:42;;;;;;;;;;;;;;;13.38;100.00;94356.41;5136247;27;977;-64
2023/10/27 02:08:08;;;;;;;;;;;;;;;13.18;100.00;94352.75;5135850;27;1301;-65
2023/10/27 02:10:34;;;;;;;;;;;;;;;13.12;100.00;94342.78;5136010;27;1033;-64
2023/10/27 02:13:00;;;;;;;;;;;;;;;13.36;100.00;94345.03;5117238;27;1015;-65
2023/10/27 02:15:26;;;;;;;;;;;;;;;13.53;100.00;94352.78;5135719;27;1036;-65
2023/10/27 02:17:52;;;;;;;;;;;;;;;13.42;100.00;94352.31;5135837;27;1048;-65
2023/10/27 02:20:18;;;;;;;;;;;;;;;13.42;100.00;94348.78;5135778;27;1906;-64
2023/10/27 02:22:44;;;;;;;;;;;;;;;13.21;100.00;94349.66;5135908;27;981;-65
2023/10/27 02:25:10;;;;;;;;;;;;;;;13.05;100.00;94346.28;5135669;27;1037;-65
2023/10/27 02:27:41;;;;;;;;;;;;;;;13.05;100.00;94354.31;5135696;27;1025;-65
2023/10/27 02:30:07;;;;;;;;;;;;;;;13.20;100.00;94364.09;5135589;27;972;-65
2023/10/27 02:32:33;;;;;;;;;;;;;;;13.31;100.00;94371.66;5137955;27;1208;-64
2023/10/27 02:34:59;;;;;;;;;;;;;;;13.25;100.00;94369.72;5156443;27;1024;-64
2023/10/27 02:37:25;;;;;;;;;;;;;;;13.37;100.00;94375.41;5137844;27;977;-64
2023/10/27 02:39:51;;;;;;;;;;;;;;;13.26;100.00;94372.22;5156021;27;1910;-64
2023/10/27 02:42:17;;;;;;;;;;;;;;;13.25;100.00;94369.72;5137731;27;1277;-63
2023/10/27 02:44:43;;;;;;;;;;;;;;;13.30;100.00;94359.25;5156001;27;1339;-64
2023/10/27 02:47:09;;;;;;;;;;;;;;;13.18;100.00;94360.78;5156175;27;1055;-64
2023/10/27 02:49:35;;;;;;;;;;;;;;;13.15;100.00;94353.16;5156083;27;991;-64
2023/10/27 02:52:01;;;;;;;;;;;;;;;13.19;100.00;94354.41;5156009;27;1003;-64
2023/10/27 02:54:27;;;;;;;;;;;;;;;13.06;100.00;94355.97;5155773;27;1035;-64
2023/10/27 02:56:53;;;;;;;;;;;;;;;13.07;100.00;94352.28;5155841;27;987;-61
2023/10/27 02:59:19;;;;;;;;;;;;;;;13.16;100.00;94349.44;5155674;27;1059;-61
2023/10/27 03:01:45;;;;;;;;;;;;;;;13.11;100.00;94346.50;5155849;27;2017;-61
2023/10/27 03:04:12;;;;;;;;;;;;;;;13.07;100.00;94341.53;5155745;27;1044;-61
2023/10/27 03:06:38;;;;;;;;;;;;;;;13.12;100.00;94340.13;5155847;27;1242;-60
2023/10/27 03:09:04;;;;;;;;;;;;;;;13.08;100.00;94353.09;5155463;27;1146;-60
2023/10/27 03:11:30;;;;;;;;;;;;;;;12.98;100.00;94340.03;5155591;27;1014;-61
2023/10/27 03:13:56;;;;;;;;;;;;;;;13.08;100.00;94347.72;5155562;27;972;-61
2023/10/27 03:16:22;;;;;;;;;;;;;;;13.22;100.00;94337.91;5155570;27;1104;-60
2023/10/27 03:18:48;;;;;;;;;;;;;;;13.01;100.00;94336.09;5155607;27;971;-61
2023/10/27 03:21:14;;;;;;;;;;;;;;;12.95;100.00;94331.53;5136979;27;1988;-61
2023/10/27 03:23:40;;;;;;;;;;;;;;;12.96;100.00;94334.03;5154694;27;1015;-61
2023/10/27 03:26:07;;;;;;;;;;;;;;;13.13;100.00;94344.44;5155144;27;975;-61
2023/10/27 03:28:33;;;;;;;;;;;;;;;13.28;100.00;94342.50;5136744;27;1107;-61
2023/10/27 03:30:59;;;;;;;;;;;;;;;12.94;100.00;94335.22;5155141;27;1044;-61
2023/10/27 03:33:25;;;;;;;;;;;;;;;12.96;100.00;94327.84;5145242;27;1204;-61
2023/10/27 03:35:51;;;;;;;;;;;;;;;12.92;100.00;94311.31;5134596;27;993;-62
2023/10/27 03:38:17;;;;;;;;;;;;;;;13.17;100.00;94314.34;5134424;27;1028;-60
2023/10/27 03:40:44;;;;;;;;;;;;;;;13.35;100.00;94313.84;5134355;27;1996;-60
2023/10/27 03:43:10;;;;;;;;;;;;;;;13.35;100.00;94308.47;5134702;27;1028;-60
2023/10/27 03:45:37;;;;;;;;;;;;;;;13.20;100.00;94305.91;5134343;28;1091;-60
2023/10/27 03:48:03;;;;;;;;;;;;;;;13.01;100.00;94304.75;5116273;28;996;-60
2023/10/27 03:50:29;;;;;;;;;;;;;;;13.06;100.00;94309.53;5134320;28;1033;-60
2023/10/27 03:52:55;;;;;;;;;;;;;;;13.29;100.00;94311.94;5134254;28;1036;-65
2023/10/27 03:55:21;;;;;;;;;;;;;;;13.27;100.00;94313.97;5134191;28;968;-60
2023/10/27 03:57:47;;;;;;;;;;;;;;;13.13;100.00;94304.19;5134222;28;1036;-62
2023/10/27 04:00:15;;;;;;;;;;;;;;;13.06;100.00;94304.97;5134343;28;1988;-62
2023/10/27 04:02:41;;;;;;;;;;;;;;;12.95;100.00;94299.34;5134393;28;1037;-61
2023/10/27 04:05:07;;;;;;;;;;;;;;;12.99;100.00;94293.38;5134192;28;1143;-61
2023/10/27 04:07:33;;;;;;;;;;;;;;;13.16;100.00;94288.50;5133948;28;1127;-62
2023/10/27 04:09:59;;;;;;;;;;;;;;;13.18;100.00;94281.09;5134148;28;917;-61
2023/10/27 04:12:25;;;;;;;;;;;;;;;13.23;100.00;94284.03;5133965;28;1036;-62
2023/10/27 04:14:51;;;;;;;;;;;;;;;13.17;100.00;94286.69;5134273;28;1040;-61
2023/10/27 04:17:17;;;;;;;;;;;;;;;13.02;100.00;94279.56;5134371;28;1219;-61
2023/10/27 04:19:43;;;;;;;;;;;;;;;13.07;100.00;94282.50;5133924;28;1909;-61
2023/10/27 04:22:10;;;;;;;;;;;;;;;13.27;100.00;94281.78;5133972;28;1118;-61
2023/10/27 04:24:37;;;;;;;;;;;;;;;13.15;100.00;94269.94;5115759;28;1021;-61
2023/10/27 04:27:03;;;;;;;;;;;;;;;13.12;100.00;94273.84;5133884;28;1039;-61
2023/10/27 04:29:29;;;;;;;;;;;;;;;13.19;100.00;94277.41;5133827;28;1020;-62
2023/10/27 04:31:55;;;;;;;;;;;;;;;13.20;100.00;94275.53;5134139;28;1067;-62
2023/10/27 04:34:21;;;;;;;;;;;;;;;12.88;100.00;94280.50;5151714;27;1177;-64
2023/10/27 04:36:48;;;;;;;;;;;;;;;12.76;100.00;94279.41;5157778;27;1258;-62
2023/10/27 04:39:14;;;;;;;;;;;;;;;12.94;100.00;94273.53;5158377;27;1039;-61
2023/10/27 04:41:40;;;;;;;;;;;;;;;13.25;100.00;94273.09;5158303;27;1902;-62
2023/10/27 04:44:06;;;;;;;;;;;;;;;13.48;100.00;94272.81;5158415;27;1087;-62
2023/10/27 04:46:32;;;;;;;;;;;;;;;13.46;100.00;94264.94;5158264;27;911;-61
2023/10/27 04:48:58;;;;;;;;;;;;;;;13.52;100.00;94267.88;5158449;27;1036;-62
2023/10/27 04:51:26;;;;;;;;;;;;;;;13.44;100.00;94258.13;5158163;27;1040;-62
2023/10/27 04:53:52;;;;;;;;;;;;;;;13.45;100.00;94247.19;5158193;27;1068;-62
2023/10/27 04:56:18;;;;;;;;;;;;;;;13.22;100.00;94235.91;5158094;27;1011;-62
2023/10/27 04:58:44;;;;;;;;;;;;;;;13.27;100.00;94230.75;5158418;27;977;-64
2023/10/27 05:01:11;;;;;;;;;;;;;;;13.35;100.00;94233.31;5157964;27;1901;-62
2023/10/27 05:03:37;;;;;;;;;;;;;;;13.50;100.00;94240.38;5158012;27;1229;-62
2023/10/27 05:06:09;;;;;;;;;;;;;;;13.48;100.00;94236.03;5158163;27;991;-63
2023/10/27 05:08:36;;;;;;;;;;;;;;;13.54;100.00;94236.25;5157885;27;1226;-62
2023/10/27 05:11:03;;;;;;;;;;;;;;;13.42;100.00;94236.84;5157864;27;1044;-63
2023/10/27 05:13:30;;;;;;;;;;;;;;;13.47;100.00;94233.56;5158018;27;1008;-63
2023/10/27 05:15:56;;;;;;;;;;;;;;;13.59;100.00;94226.56;5157792;27;1044;-63
2023/10/27 05:18:22;;;;;;;;;;;;;;;13.40;100.00;94228.16;5157690;27;1028;-61
2023/10/27 05:20:48;;;;;;;;;;;;;;;13.45;100.00;94238.31;5157744;27;1990;-63
2023/10/27 05:23:14;;;;;;;;;;;;;;;13.56;100.00;94253.81;5157549;27;1115;-63
2023/10/27 05:25:40;;;;;;;;;;;;;;;13.71;100.00;94266.28;5157649;27;1202;-63
2023/10/27 05:28:08;;;;;;;;;;;;;;;13.65;100.00;94279.47;5157771;27;976;-63
2023/10/27 05:30:37;;;;;;;;;;;;;;;13.67;100.00;94287.34;5157582;27;1022;-63
2023/10/27 05:33:04;;;;;;;;;;;;;;;13.57;100.00;94287.72;5150704;27;1164;-61
2023/10/27 05:35:29;;;;;;;;;;;;;;;13.66;100.00;94283.00;5136702;27;1029;-63
2023/10/27 05:37:55;;;;;;;;;;;;;;;13.91;100.00;94285.16;5136597;27;1024;-63
2023/10/27 05:40:23;;;;;;;;;;;;;;;14.05;100.00;94279.59;5136355;27;1998;-63
2023/10/27 05:42:49;;;;;;;;;;;;;;;14.18;100.00;94281.47;5136749;27;1049;-63
2023/10/27 05:45:15;;;;;;;;;;;;;;;14.24;100.00;94285.22;5136429;27;1083;-62
2023/10/27 05:47:41;;;;;;;;;;;;;;;14.31;100.00;94293.28;5135814;27;961;-63
2023/10/27 05:50:07;;;;;;;;;;;;;;;14.42;100.00;94290.81;5136427;27;1047;-63
2023/10/27 05:52:34;;;;;;;;;;;;;;;15.66;98.68;94291.06;5136270;27;1046;-64
2023/10/27 05:55:00;;;;;;;;;;;;;;;18.15;85.12;94289.59;5136286;27;1032;-65
2023/10/27 05:57:26;;;;;;;;;;;;;;;20.25;73.51;94293.69;5136272;27;906;-65
2023/10/27 05:59:53;;;;;;;;;;;;;;;21.35;68.30;94286.06;5136343;27;1906;-64
2023/10/27 06:02:20;;;;;;;;;;;;;;;21.27;67.43;94286.50;5136250;27;952;-64
2023/10/27 06:04:45;;;;;;;;;;;;;;;20.01;73.71;94285.59;5136196;27;936;-64
2023/10/27 06:07:15;;;;;;;;;;;;;;;20.55;72.10;94265.47;5135877;27;1083;-64
2023/10/27 06:09:41;;;;;;;;;;;;;;;18.95;79.26;94268.63;5136072;27;1028;-63
2023/10/27 06:12:09;;;;;;;;;;;;;;;18.51;82.23;94263.47;5136150;27;1011;-65
2023/10/27 06:14:35;;;;;;;;;;;;;;;19.26;78.47;94276.41;5136050;27;1217;-66
2023/10/27 06:17:01;;;;;;;;;;;;;;;20.21;73.72;94265.38;5135899;27;1059;-66
2023/10/27 06:19:27;;;;;;;;;;;;;;;18.78;80.38;94263.88;5135808;27;1055;-66
2023/10/27 06:21:59;;;;;;;;;;;;;;;18.85;79.56;94269.22;5135711;27;1984;-64
2023/10/27 06:24:25;;;;;;;;;;;;;;;17.48;87.17;94257.13;5135598;27;1068;-64
2023/10/27 06:26:51;;;;;;;;;;;;;;;16.84;91.87;94257.38;5135664;27;948;-64
2023/10/27 06:29:17;;;;;;;;;;;;;;;16.53;93.69;94242.03;5135645;27;1027;-64
2023/10/27 06:31:43;;;;;;;;;;;;;;;16.22;95.70;94245.56;5135588;27;1107;-64
2023/10/27 06:34:09;;;;;;;;;;;;;;;16.01;97.50;94250.28;5151783;27;1161;-63
2023/10/27 06:36:35;;;;;;;;;;;;;;;15.95;98.09;94257.38;5156140;27;957;-63
2023/10/27 06:39:02;;;;;;;;;;;;;;;15.99;98.00;94257.75;5156075;27;1020;-64
2023/10/27 06:41:28;;;;;;;;;;;;;;;16.36;96.92;94257.94;5137755;27;2001;-67
2023/10/27 06:43:54;;;;;;;;;;;;;;;16.32;97.17;94256.72;5156165;27;949;-63
2023/10/27 06:46:20;;;;;;;;;;;;;;;18.36;85.92;94261.19;5155860;27;1048;-61
2023/10/27 06:48:46;;;;;;;;;;;;;;;17.81;87.55;94255.91;5155918;27;1059;-64
2023/10/27 06:51:12;;;;;;;;;;;;;;;18.71;83.83;94268.59;5155757;27;1051;-64
2023/10/27 06:53:38;;;;;;;;;;;;;;;17.86;86.56;94262.31;5137784;27;1050;-63
2023/10/27 06:56:04;;;;;;;;;;;;;;;17.79;88.20;94268.81;5156069;27;1270;-59
2023/10/27 06:58:30;;;;;;;;;;;;;;;18.24;84.79;94271.16;5155763;27;982;-63
2023/10/27 07:00:57;;;;;;;;;;;;;;;17.95;86.60;94268.25;5137414;27;1918;-64
2023/10/27 07:03:23;;;;;;;;;;;;;;;17.43;90.26;94263.19;5155662;27;945;-63
2023/10/27 07:05:49;;;;;;;;;;;;;;;17.03;92.78;94262.81;5137316;27;1026;-63
2023/10/27 07:08:16;;;;;;;;;;;;;;;16.75;95.99;94264.91;5155328;27;1084;-64
2023/10/27 07:10:45;;;;;;;;;;;;;;;16.72;95.76;94262.63;5155788;27;1040;-63
2023/10/27 07:13:11;;;;;;;;;;;;;;;16.91;94.80;94262.72;5155595;27;957;-64
2023/10/27 07:15:37;;;;;;;;;;;;;;;17.39;92.44;94258.47;5155628;27;983;-63
2023/10/27 07:18:03;;;;;;;;;;;;;;;17.30;92.82;94255.25;5155561;27;1043;-63
2023/10/27 07:20:29;;;;;;;;;;;;;;;17.63;91.48;94256.75;5155259;27;1991;-63
2023/10/27 07:22:55;;;;;;;;;;;;;;;18.35;87.25;94264.97;5137288;27;1039;-63
2023/10/27 07:25:21;;;;;;;;;;;;;;;18.95;86.47;94276.75;5137116;27;1000;-63
2023/10/27 07:27:47;;;;;;;;;;;;;;;19.06;86.09;94274.03;5155466;27;964;-63
2023/10/27 07:30:13;;;;;;;;;;;;;;;19.50;83.96;94260.97;5155191;27;1185;-63
2023/10/27 07:32:39;;;;;;;;;;;;;;;19.76;81.81;94258.81;5151792;27;1136;-63
2023/10/27 07:35:05;;;;;;;;;;;;;;;20.05;79.55;94256.09;5134467;27;1060;-62
2023/10/27 07:37:31;;;;;;;;;;;;;;;19.86;80.51;94269.03;5134637;27;960;-63
2023/10/27 07:39:57;;;;;;;;;;;;;;;19.89;81.52;94274.00;5134366;27;1913;-62
2023/10/27 07:42:23;;;;;;;;;;;;;;;19.95;80.92;94262.16;5134501;27;1161;-63
2023/10/27 07:44:49;;;;;;;;;;;;;;;19.82;80.47;94260.53;5134398;27;1127;-63
2023/10/27 07:47:15;;;;;;;;;;;;;;;19.39;82.72;94259.09;5134442;28;1145;-62
2023/10/27 07:49:41;;;;;;;;;;;;;;;19.48;81.69;94264.94;5134389;28;953;-62
2023/10/27 07:52:08;;;;;;;;;;;;;;;19.49;82.91;94270.16;5134308;28;996;-61
2023/10/27 07:54:34;;;;;;;;;;;;;;;19.35;82.42;94268.75;5134526;28;988;-63
2023/10/27 07:57:00;;;;;;;;;;;;;;;19.13;84.12;94273.13;5134418;28;988;-61
2023/10/27 07:59:27;;;;;;;;;;;;;;;18.87;85.75;94273.31;5134190;28;1032;-63
2023/10/27 08:01:53;;;;;;;;;;;;;;;18.64;86.33;94271.38;5134175;28;1905;-63
2023/10/27 08:04:20;;;;;;;;;;;;;;;18.75;86.06;94279.78;5115999;28;1402;-63
2023/10/27 08:06:46;;;;;;;;;;;;;;;18.96;85.38;94283.84;5134115;28;1101;-64
2023/10/27 08:09:12;;;;;;;;;;;;;;;18.98;83.32;94285.25;5133897;28;1245;-62
2023/10/27 08:11:38;;;;;;;;;;;;;;;18.95;85.01;94284.88;5137181;27;1007;-62
2023/10/27 08:14:04;;;;;;;;;;;;;;;18.97;85.16;94285.47;5138346;27;972;-61
2023/10/27 08:16:31;;;;;;;;;;;;;;;18.94;87.33;94275.13;5138137;27;1064;-63
2023/10/27 08:18:57;;;;;;;;;;;;;;;18.94;87.65;94270.53;5138138;27;1025;-62
2023/10/27 08:21:23;;;;;;;;;;;;;;;19.03;85.85;94269.13;5137874;27;1996;-63
2023/10/27 08:23:49;;;;;;;;;;;;;;;19.23;84.37;94268.75;5138094;27;1107;-62
2023/10/27 08:26:15;;;;;;;;;;;;;;;19.59;84.32;94269.53;5138130;27;1038;-61
2023/10/27 08:28:41;;;;;;;;;;;;;;;19.65;83.67;94268.59;5138066;27;957;-62
2023/10/27 08:31:07;;;;;;;;;;;;;;;19.54;83.72;94266.72;5119793;27;976;-62
2023/10/27 08:33:33;;;;;;;;;;;;;;;19.31;86.02;94256.72;5148554;27;1184;-62
2023/10/27 08:36:00;;;;;;;;;;;;;;;19.22;84.50;94250.84;5158584;27;1071;-62
2023/10/27 08:38:29;;;;;;;;;;;;;;;19.26;83.68;94260.16;5158593;27;1072;-61
2023/10/27 08:40:56;;;;;;;;;;;;;;;19.29;83.22;94254.28;5158620;27;1913;-62
2023/10/27 08:43:22;;;;;;;;;;;;;;;19.14;82.97;94262.03;5158470;27;1018;-62
2023/10/27 08:45:49;;;;;;;;;;;;;;;19.21;83.14;94270.06;5158570;27;1069;-62
2023/10/27 08:48:14;;;;;;;;;;;;;;;19.35;83.33;94263.34;5158311;27;957;-62
2023/10/27 08:50:41;;;;;;;;;;;;;;;19.57;83.09;94265.41;5158303;27;1054;-62
2023/10/27 08:53:12;;;;;;;;;;;;;;;19.83;82.71;94262.22;5158288;27;991;-62
2023/10/27 08:55:38;;;;;;;;;;;;;;;19.99;82.42;94271.47;5158253;27;1091;-59
2023/10/27 08:58:04;;;;;;;;;;;;;;;20.03;82.02;94253.66;5158196;27;1091;-62
2023/10/27 09:00:30;;;;;;;;;;;;;;;20.06;80.74;94245.03;5158090;27;1913;-62
2023/10/27 09:02:56;;;;;;;;;;;;;;;20.11;81.11;94247.03;5158067;27;1012;-62
2023/10/27 09:05:24;;;;;;;;;;;;;;;20.22;81.30;94235.31;5157970;27;912;-62
2023/10/27 09:07:50;;;;;;;;;;;;;;;20.26;79.43;94230.19;5158077;27;1790;-61
2023/10/27 09:10:19;;;;;;;;;;;;;;;20.27;79.41;94234.56;5158046;27;1031;-62
2023/10/27 09:12:47;;;;;;;;;;;;;;;20.29;79.09;94235.13;5157863;27;1035;-61
2023/10/27 09:15:13;;;;;;;;;;;;;;;20.15;79.21;94222.94;5157894;27;977;-62
2023/10/27 09:17:56;;;;;;;;;;;;;;;20.06;80.94;94217.88;5157730;27;1090;-61
2023/10/27 09:20:23;;;;;;;;;;;;;;;20.20;81.48;94202.13;5139433;27;1913;-61
2023/10/27 09:22:59;;;;;;;;;;;;;;;20.20;80.12;94193.97;5156487;27;1054;-61
2023/10/27 09:25:29;;;;;;;;;;;;;;;20.36;79.73;94189.66;5157674;27;1219;-61
2023/10/27 09:27:55;;;;;;;;;;;;;;;20.61;77.84;94193.91;5157641;27;971;-59
2023/10/27 09:30:29;;;;;;;;;;;;;;;20.45;78.09;94201.75;5157724;27;976;-61
2023/10/27 09:33:09;;;;;;;;;;;;;;;20.39;79.05;94202.72;5152002;27;1132;-62
2023/10/27 09:35:35;;;;;;;;;;;;;;;20.36;79.44;94208.66;5136899;27;1019;-62
2023/10/27 09:38:03;;;;;;;;;;;;;;;20.54;78.74;94187.78;5136645;27;1079;-61
2023/10/27 09:40:29;;;;;;;;;;;;;;;20.83;76.62;94197.53;5136420;27;1909;-62
2023/10/27 09:42:57;;;;;;;;;;;;;;;20.96;78.34;94195.53;5136758;27;1036;-62
2023/10/27 09:45:27;;;;;;;;;;;;;;;21.03;77.28;94196.16;5118459;27;984;-62
2023/10/27 09:47:59;;;;;;;;;;;;;;;20.94;75.98;94194.94;5136615;27;949;-62
2023/10/27 09:50:25;;;;;;;;;;;;;;;21.00;76.01;94193.94;5136350;27;1276;-62
2023/10/27 09:52:55;;;;;;;;;;;;;;;21.10;74.14;94187.84;5136409;27;1036;-62
2023/10/27 09:55:21;;;;;;;;;;;;;;;21.15;69.70;94177.03;5136175;27;1029;-59
2023/10/27 09:57:47;;;;;;;;;;;;;;;21.27;69.09;94185.91;5136498;27;1024;-64
2023/10/27 10:00:18;;;;;;;;;;;;;;;21.38;68.78;94174.09;5136228;27;1913;-62
2023/10/27 10:02:45;;;;;;;;;;;;;;;21.58;69.10;94165.41;5118167;27;953;-61
2023/10/27 10:05:11;;;;;;;;;;;;;;;21.75;67.05;94159.06;5136078;27;957;-60
2023/10/27 10:07:54;;;;;;;;;;;;;;;21.98;66.95;94153.31;5117698;27;1183;-63
2023/10/27 10:10:20;;;;;;;;;;;;;;;22.12;64.29;94155.63;5136234;27;973;-64
2023/10/27 10:13:01;;;;;;;;;;;;;;;22.16;61.74;94149.44;5136221;27;1019;-63
2023/10/27 10:15:28;;;;;;;;;;;;;;;22.52;62.36;94148.94;5135923;27;966;-68
2023/10/27 10:17:54;;;;;;;;;;;;;;;22.74;60.75;94154.28;5135787;27;1072;-67
2023/10/27 10:20:44;;;;;;;;;;;;;;;22.80;60.93;94150.50;5135624;27;1986;-64
2023/10/27 10:23:10;;;;;;;;;;;;;;;22.89;61.02;94134.50;5125481;27;1376;-68
2023/10/27 10:25:48;;;;;;;;;;;;;;;22.93;60.99;94136.44;5135744;27;1087;-63
2023/10/27 10:28:17;;;;;;;;;;;;;;;22.95;59.65;94130.72;5135580;27;1032;-63
2023/10/27 10:30:45;;;;;;;;;;;;;;;22.89;59.30;94126.34;5135596;27;1060;-63
2023/10/27 10:33:19;;;;;;;;;;;;;;;22.99;58.86;94129.09;5143127;27;1169;-63
2023/10/27 10:35:52;;;;;;;;;;;;;;;22.91;58.10;94135.88;5156533;27;1039;-61
2023/10/27 10:38:24;;;;;;;;;;;;;;;22.86;57.65;94129.56;5156260;27;1068;-62
2023/10/27 10:40:50;;;;;;;;;;;;;;;22.82;57.06;94126.53;5156001;27;1996;-63
2023/10/27 10:43:17;;;;;;;;;;;;;;;22.75;56.78;94118.63;5156048;27;975;-62
2023/10/27 10:45:44;;;;;;;;;;;;;;;22.74;57.71;94116.16;5156330;27;991;-62
2023/10/27 10:48:10;;;;;;;;;;;;;;;22.74;57.73;94132.50;5156154;27;1022;-63
2023/10/27 10:50:36;;;;;;;;;;;;;;;22.76;58.00;94133.06;5156161;27;968;-65
2023/10/27 10:53:11;;;;;;;;;;;;;;;22.71;57.99;94133.00;5155889;27;1083;-65
2023/10/27 10:55:37;;;;;;;;;;;;;;;22.71;58.44;94133.00;5155843;27;1029;-65
2023/10/27 10:58:03;;;;;;;;;;;;;;;22.73;58.47;94136.31;5155834;27;1040;-65
2023/10/27 11:00:36;;;;;;;;;;;;;;;22.72;58.18;94130.03;5137177;27;2004;-68
2023/10/27 11:03:09;;;;;;;;;;;;;;;22.73;57.32;94131.69;5155711;27;1043;-69
2023/10/27 11:05:35;;;;;;;;;;;;;;;22.71;58.15;94122.97;5155745;27;1051;-70
2023/10/27 11:08:02;;;;;;;;;;;;;;;22.61;58.32;94104.63;5155375;27;1063;-69
2023/10/27 11:10:28;;;;;;;;;;;;;;;22.59;57.66;94111.41;5155378;27;1028;-69
2023/10/27 11:12:55;;;;;;;;;;;;;;;22.56;57.52;94111.94;5155733;27;999;-69
2023/10/27 11:15:41;;;;;;;;;;;;;;;22.61;57.22;94106.53;5155520;27;1067;-72
2023/10/27 11:18:07;;;;;;;;;;;;;;;22.51;57.89;94098.28;5155573;27;1067;-72
2023/10/27 11:20:37;;;;;;;;;;;;;;;22.51;58.24;94095.56;5155281;27;1905;-70
2023/10/27 11:23:07;;;;;;;;;;;;;;;22.49;57.45;94084.13;5155251;27;1122;-71
2023/10/27 11:25:33;;;;;;;;;;;;;;;22.45;57.38;94077.56;5155500;27;1123;-71
2023/10/27 11:28:18;;;;;;;;;;;;;;;22.44;57.95;94074.00;5155242;27;1036;-72
2023/10/27 11:30:56;;;;;;;;;;;;;;;22.39;56.24;94096.56;5150439;27;1059;-71
2023/10/27 11:33:22;;;;;;;;;;;;;;;22.38;58.42;94092.19;5134379;27;1212;-71
2023/10/27 11:35:48;;;;;;;;;;;;;;;22.40;57.45;94090.06;5134407;27;1000;-72
2023/10/27 11:38:14;;;;;;;;;;;;;;;22.45;57.78;94096.63;5134607;27;969;-72
2023/10/27 11:40:40;;;;;;;;;;;;;;;22.55;57.58;94093.97;5115944;28;1918;-73
2023/10/27 11:43:06;;;;;;;;;;;;;;;22.53;56.45;94088.75;5116312;28;1028;-73
2023/10/27 11:45:34;;;;;;;;;;;;;;;22.49;56.60;94070.50;5115326;28;1082;-72
2023/10/27 11:48:00;;;;;;;;;;;;;;;22.38;56.51;94072.31;5134379;28;948;-69
2023/10/27 11:50:26;;;;;;;;;;;;;;;22.31;55.92;94064.38;5134236;28;1026;-72
2023/10/27 11:52:52;;;;;;;;;;;;;;;22.27;56.67;94052.38;5116215;28;1031;-70
2023/10/27 11:55:19;;;;;;;;;;;;;;;22.28;57.06;94048.56;5134130;28;1028;-71
2023/10/27 11:57:45;;;;;;;;;;;;;;;22.16;57.26;94039.75;5134354;28;1044;-73
2023/10/27 12:00:11;;;;;;;;;;;;;;;22.18;57.25;94034.84;5134078;28;1988;-68
2023/10/27 12:02:37;;;;;;;;;;;;;;;22.22;57.17;94038.69;5134159;28;1222;-67
2023/10/27 12:05:03;;;;;;;;;;;;;;;22.15;57.64;94030.72;5115931;28;1480;-65
2023/10/27 12:07:30;;;;;;;;;;;;;;;22.07;57.02;94022.25;5116035;28;1194;-67
2023/10/27 12:09:56;;;;;;;;;;;;;;;22.00;57.77;94031.44;5134424;28;1493;-68
2023/10/27 12:12:22;;;;;;;;;;;;;;;22.01;57.25;94019.47;5134037;28;1163;-65
2023/10/27 12:14:48;;;;;;;;;;;;;;;21.99;58.08;94015.38;5115948;28;1011;-69
2023/10/27 12:17:14;;;;;;;;;;;;;;;21.91;57.81;94027.56;5133980;28;1036;-71
2023/10/27 12:19:40;;;;;;;;;;;;;;;21.84;58.37;94035.94;5134252;28;1079;-72
2023/10/27 12:22:08;;;;;;;;;;;;;;;21.77;58.70;94042.66;5133905;28;1964;-71
2023/10/27 12:24:34;;;;;;;;;;;;;;;21.81;57.83;94043.78;5134062;28;1043;-67
2023/10/27 12:27:01;;;;;;;;;;;;;;;21.75;58.55;94033.94;5115904;28;989;-67
2023/10/27 12:29:27;;;;;;;;;;;;;;;21.62;58.54;94022.38;5133845;28;1119;-66
2023/10/27 12:31:55;;;;;;;;;;;;;;;21.57;59.24;94043.25;5133922;28;1021;-64
2023/10/27 12:34:21;;;;;;;;;;;;;;;21.57;58.75;94033.22;5151566;27;1189;-66
2023/10/27 12:36:47;;;;;;;;;;;;;;;21.54;58.94;94039.19;5154749;27;1052;-67
2023/10/27 12:39:15;;;;;;;;;;;;;;;21.56;58.84;94037.00;5154725;27;999;-66
2023/10/27 12:41:41;;;;;;;;;;;;;;;21.54;58.06;94043.78;5154531;27;1910;-60
2023/10/27 12:44:07;;;;;;;;;;;;;;;21.56;57.71;94038.91;5136175;27;1047;-66
2023/10/27 12:46:33;;;;;;;;;;;;;;;21.58;58.25;94051.16;5154448;27;998;-65
2023/10/27 12:49:01;;;;;;;;;;;;;;;21.57;58.48;94044.09;5154755;27;1032;-65
2023/10/27 12:51:27;;;;;;;;;;;;;;;21.54;58.64;94046.53;5154413;27;1032;-68
2023/10/27 12:53:54;;;;;;;;;;;;;;;21.53;58.01;94042.97;5154635;27;1022;-65